Hickory Regional Airport Hickory US
ICAO: KHKY
IATA: HKY
Category: Medium
Scheduled Services: No

Elevation: 1190 ft
TransAlt. 18000 ft.

Airport Communications:
ASOS:118.325
CLNC DEL:121.7
ATLANTA CNTR:125.15
CTAF:128.15
GND:121.7
RALEIGH RDO:122.2
TWR:128.15

KHKY Zoom In..

Runways:

(A) RW 01 length 4400 ft width 150 ft
---- / hdg 14

(B) RW 06 length 6400 ft width 150 ft
---- / hdg 61

(C) RW 19 length 4400 ft width 150 ft
---- / hdg 194

(D) RW 24 length 6400 ft width 150 ft
ILS 108.70 / hdg 241

Location; KHKY
Day. 25 / Time. 09.53 Zulu
* Altimeter: 29.77
* Temperature: 13° c. 55.4°f.
* Wind from: 320° Speed 04 kn.
Dewpoint: 13° c.
Visibility: 10 Statute Miles.

KHKY 250953Z AUTO 32004KT 10SM 13/13 A2977 RMK AO2 SLP066 T01280128 $


Wind From 320°
Speed 04 kn.

  YouTube Music Video
 
jpsmedia.com for Web Design  worldairports.se 2018   terms of use